Πλησιέστερες Αναφορές METAR

 

LGTS - Thessaloniki/Makedonia-Elev 7m
Απόσταση από σταθμό: Ν 13km
Ενημερώθηκε: 08/04/2020 23:20
Αίθριος
Αίθριος
 Ανεμοι από ΑΝΑ
Ανεμος: ΑΝΑ 7 km/h
Θερμοκρασία: 9°C
Δείκτης Ψύχρας: 8°C
Σημείο Δρόσου: 4°C
Υγρασία: 71%
Βαρόμετρο: 1021 hPa
Περίληψη: Αίθριος
Ορατότητα: πάνω από 10 km
2020/04/08 20:20 LGTS 082020Z 12004KT CAVOK 09/04 Q1021 NOSIG
LGAV - Athens/Elef. Venizelos-Elev 94m
Απόσταση από σταθμό: ΝΝΑ 312km
Ενημερώθηκε: 08/04/2020 23:20
Διάσπαρτα Νέφη
Διάσπαρτα Νέφη
 Ανεμοι από ΒΒΑ
Ανεμος: ΒΒΑ 30 km/h
Θερμοκρασία: 13°C
Σημείο Δρόσου: 1°C
Υγρασία: 44%
Βαρόμετρο: 1019 hPa
Νέφωση: Διάσπαρτα Νέφη
Ορατότητα: 10 km
Λεπτομέρειες Νεφών: Διάσπαρτα Νέφη 762 m
2020/04/08 20:20 LGAV 082020Z 02016KT 9999 FEW025 13/01 Q1019 NOSIG
 
LGAL - Alexandroupolis-Elev 3m
Απόσταση από σταθμό: Α 251km
Ενημερώθηκε: 08/04/2020 20:50
ΜΗ Ενημερωμένο METAR!
Αίθριος
Αίθριος
 Ανεμοι από ΒΑ
Ανεμος: ΒΑ 20 km/h
Θερμοκρασία: 12°C
Σημείο Δρόσου: -2°C
Υγρασία: 38%
Βαρόμετρο: 1021 hPa
Περίληψη: Αίθριος
Ορατότητα: πάνω από 10 km
2020/04/08 17:50 LGAL 081750Z 05011KT CAVOK 12/M02 Q1021
LGKV - Kavala/Crysoupolis-Elev 5m
Απόσταση από σταθμό: ΑΒΑ 144km
Ενημερώθηκε: 08/04/2020 20:50
ΜΗ Ενημερωμένο METAR!
Αίθριος
Αίθριος
 Ανεμοι από ΒΑ
Ανεμος: ΒΑ 15 km/h
Θερμοκρασία: 15°C
Σημείο Δρόσου: -1°C
Υγρασία: 34%
Βαρόμετρο: 1021 hPa
Περίληψη: Αίθριος
Ορατότητα: πάνω από 10 km
2020/04/08 17:50 LGKV 081750Z 05008KT CAVOK 15/M01 Q1021
 
LGSK - Skiathos Island-Elev 15m
Απόσταση από σταθμό: ΝΝΑ 168km
Ενημερώθηκε: 08/04/2020 14:50
ΜΗ Ενημερωμένο METAR!
Διάσπαρτα Νέφη
Διάσπαρτα Νέφη
 Ανεμοι από ΒΒΑ
Ανεμος: ΒΒΑ 19 km/h
Θερμοκρασία: 15°C
Σημείο Δρόσου: 4°C
Υγρασία: 48%
Βαρόμετρο: 1024 hPa
Νέφωση: Διάσπαρτα Νέφη
Ορατότητα: 10 km
Λεπτομέρειες Νεφών: Διάσπαρτα Νέφη 610 m
2020/04/08 11:50 LGSK 081150Z 02010KT 9999 FEW020 15/04 Q1024
LGLM - Limnos Island-Elev 5m
Απόσταση από σταθμό: ΑΝΑ 210km
Ενημερώθηκε: 08/04/2020 23:20
Αίθριος
Αίθριος
 Ανεμοι από ΑΒΑ
Ανεμος: ΑΒΑ 31 km/h, Ριπή: 56 km/h
Θερμοκρασία: 11°C
Σημείο Δρόσου: 2°C
Υγρασία: 54%
Βαρόμετρο: 1020 hPa
Περίληψη: Αίθριος
Ορατότητα: πάνω από 10 km
2020/04/08 20:20 LGLM 082020Z 06017G30KT CAVOK 11/02 Q1020
 
LGMT - Mitilini Island-Elev 17m
Απόσταση από σταθμό: ΑΝΑ 358km
Ενημερώθηκε: 08/04/2020 23:20
Αίθριος
Αίθριος
 Ανεμοι από ΒΑ
Ανεμος: ΒΑ 9 km/h
Θερμοκρασία: 11°C
Σημείο Δρόσου: 6°C
Υγρασία: 72%
Βαρόμετρο: 1018 hPa
Περίληψη: Αίθριος
Ορατότητα: πάνω από 10 km
2020/04/08 20:20 LGMT 082020Z 04005KT CAVOK 11/06 Q1018
LGSY - Skiros Island-Elev 15m
Απόσταση από σταθμό: ΝΑ 227km
Ενημερώθηκε: 08/04/2020 21:50
ΜΗ Ενημερωμένο METAR!
Διάσπαρτα Νέφη
Διάσπαρτα Νέφη
 Ανεμοι από ΒΒΑ
Ανεμος: ΒΒΑ 41 km/h
Θερμοκρασία: 13°C
Σημείο Δρόσου: 5°C
Υγρασία: 59%
Βαρόμετρο: 1021 hPa
Νέφωση: Διάσπαρτα Νέφη
Ορατότητα: 10 km
Λεπτομέρειες Νεφών: Διάσπαρτα Νέφη 762 m
2020/04/08 18:50 LGSY 081850Z 03022KT 9999 FEW025 13/05 Q1021 RMK FEW220 BLU
 
LGKZ - Kozani-Elev 628m
Απόσταση από σταθμό: ΔΝΔ 102km
Ενημερώθηκε: 08/04/2020 23:20

 Ανεμοι από μεταβλητός
Ανεμος: μεταβλητός 6 km/h
Θερμοκρασία: 7°C
Σημείο Δρόσου: -5°C
Υγρασία: 42%
Βαρόμετρο: 1022 hPa
2020/04/08 20:20 LGKZ 082020Z AUTO VRB03KT //// // ////// 07/M05 Q1022 RE//
LGIO - Ioannina-Elev 476m
Απόσταση από σταθμό: ΔΝΔ 209km
Ενημερώθηκε: 08/04/2020 23:20

 Ανεμοι από μεταβλητός
Ανεμος: μεταβλητός 2 km/h
Θερμοκρασία: 6°C
Σημείο Δρόσου: -2°C
Υγρασία: 57%
Βαρόμετρο: 1021 hPa
2020/04/08 20:20 LGIO 082020Z AUTO VRB01KT //// // ////// 06/M02 Q1021 RE//
 
LGZA - Zakinthos-Elev 3m
Απόσταση από σταθμό: ΝΝΔ 367km
Ενημερώθηκε: 08/04/2020 12:50
ΜΗ Ενημερωμένο METAR!
Διάσπαρτα Νέφη
Διάσπαρτα Νέφη
 Ανεμοι από Β
Ανεμος: Β 22 km/h
Θερμοκρασία: 17°C
Σημείο Δρόσου: 2°C
Υγρασία: 37%
Βαρόμετρο: 1021 hPa
Νέφωση: Διάσπαρτα Νέφη
Ορατότητα: 10 km
Λεπτομέρειες Νεφών: Διάσπαρτα Νέφη 2134 m
2020/04/08 09:50 LGZA 080950Z 36012KT 9999 FEW070 17/02 Q1021
LGKR - Corfu Island-Elev 2m
Απόσταση από σταθμό: ΔΝΔ 282km
Ενημερώθηκε: 08/04/2020 23:20
Αίθριος
Αίθριος
 Ανεμοι από Δ
Ανεμος: Δ 7 km/h
Θερμοκρασία: 12°C
Σημείο Δρόσου: 9°C
Υγρασία: 82%
Βαρόμετρο: 1021 hPa
Περίληψη: Αίθριος
Ορατότητα: πάνω από 10 km
2020/04/08 20:20 LGKR 082020Z 27004KT CAVOK 12/09 Q1021 NOSIG
 
LGSO - Syros Island-Elev 72m
Απόσταση από σταθμό: ΝΝΑ 397km
Ενημερώθηκε: 08/04/2020 23:20
Ασθενής βροχή
Ασθενής βροχή
 Ανεμοι από ΒΒΔ
Ανεμος: ΒΒΔ 30 km/h
Θερμοκρασία: 13°C
Σημείο Δρόσου: 6°C
Υγρασία: 63%
Βαρόμετρο: 1017 hPa
Περίληψη: Ασθενής βροχή
2020/04/08 20:20 LGSO 082020Z AUTO 34016KT //// -RA ////// 13/06 Q1017 RE//
LGMK - Mikonos Island-Elev 123m
Απόσταση από σταθμό: ΝΝΑ 412km
Ενημερώθηκε: 08/04/2020 21:20
ΜΗ Ενημερωμένο METAR!
Διάσπαρτα Νέφη
Διάσπαρτα Νέφη
 Ανεμοι από ΒΒΔ
Ανεμος: ΒΒΔ 33 km/h
Θερμοκρασία: 14°C
Σημείο Δρόσου: 5°C
Υγρασία: 55%
Βαρόμετρο: 1016 hPa
Νέφωση: Διάσπαρτα Νέφη
Ορατότητα: 10 km
Λεπτομέρειες Νεφών: Διάσπαρτα Νέφη 610 m
2020/04/08 18:20 LGMK 081820Z 34018KT 9999 FEW020 14/05 Q1016
 
LGSR - Santorini Island-Elev 40m
Απόσταση από σταθμό: ΝΝΑ 520km
Ενημερώθηκε: 08/04/2020 20:50
ΜΗ Ενημερωμένο METAR!
Μερικώς νεφελώδης
Μερικώς νεφελώδης
 Ανεμοι από Β
Ανεμος: Β 28 km/h
Θερμοκρασία: 14°C
Σημείο Δρόσου: 7°C
Υγρασία: 63%
Βαρόμετρο: 1016 hPa
Νέφωση: Μερικώς νεφελώδης
Ορατότητα: 10 km
Λεπτομέρειες Νεφών: Μερικώς νεφελώδης 762 m
2020/04/08 17:50 LGSR 081750Z 35015KT 9999 SCT025 14/07 Q1016
LGKL - Kalamata-Elev 8m
Απόσταση από σταθμό: Ν 405km
Ενημερώθηκε: 08/04/2020 23:20
Διάσπαρτα Νέφη
Διάσπαρτα Νέφη
 Ανεμοι από άπνοια
Ανεμος: άπνοια
Θερμοκρασία: 8°C
Σημείο Δρόσου: 5°C
Υγρασία: 82%
Βαρόμετρο: 1020 hPa
Νέφωση: Διάσπαρτα Νέφη
Ορατότητα: 10 km
Λεπτομέρειες Νεφών: Διάσπαρτα Νέφη 2134 m
2020/04/08 20:20 LGKL 082020Z 00000KT 9999 FEW070 08/05 Q1020
 
LGIR - Iraklion/Crete-Elev 5m
Απόσταση από σταθμό: ΝΝΑ 622km
Ενημερώθηκε: 08/04/2020 23:20
Σχεδόν νεφελώδης
Σχεδόν νεφελώδης
 Ανεμοι από ΒΔ
Ανεμος: ΒΔ 31 km/h
Θερμοκρασία: 14°C
Σημείο Δρόσου: 8°C
Υγρασία: 67%
Βαρόμετρο: 1017 hPa
Νέφωση: Σχεδόν νεφελώδης
Ορατότητα: 10 km
Λεπτομέρειες Νεφών: Διάσπαρτα Νέφη 549 m
Σχεδόν νεφελώδης 914 m
2020/04/08 20:20 LGIR 082020Z 31017KT 9999 FEW018 BKN030 14/08 Q1017 NOSIG
LGRP - Rhodes-Elev 5m
Απόσταση από σταθμό: ΝΑ 649km
Ενημερώθηκε: 08/04/2020 23:20
Διάσπαρτα Νέφη
Διάσπαρτα Νέφη
 Ανεμοι από μεταβλητός
Ανεμος: μεταβλητός 4 km/h
Θερμοκρασία: 13°C
Σημείο Δρόσου: 12°C
Υγρασία: 94%
Βαρόμετρο: 1013 hPa
Νέφωση: Διάσπαρτα Νέφη
Ορατότητα: 10 km
Λεπτομέρειες Νεφών: Διάσπαρτα Νέφη 549 m
2020/04/08 20:20 LGRP 082020Z VRB02KT 9999 FEW018 13/12 Q1013 NOSIG
 
LWOH - Ohrid/FYROM-Elev 761m
Απόσταση από σταθμό: ΔΒΔ 188km
Ενημερώθηκε: 08/04/2020 16:00
ΜΗ Ενημερωμένο METAR!
Διάσπαρτα Νέφη
Διάσπαρτα Νέφη
 Ανεμοι από ΒΑ
Ανεμος: ΒΑ 9 km/h
Θερμοκρασία: 16°C
Σημείο Δρόσου: -10°C
Υγρασία: 16%
Βαρόμετρο: 1023 hPa
Νέφωση: Διάσπαρτα Νέφη
Ορατότητα: 10 km
Λεπτομέρειες Νεφών: Διάσπαρτα Νέφη 1219 m
2020/04/08 13:00 LWOH 081300Z 05005KT 340V120 9999 FEW040 16/M10 Q1023
LBSF - Sofia/Bulgaria-Elev 595m
Απόσταση από σταθμό: Β 227km
Ενημερώθηκε: 08/04/2020 23:30
Αίθριος
Αίθριος
 Ανεμοι από ΝΔ
Ανεμος: ΝΔ 6 km/h
Θερμοκρασία: 6°C
Σημείο Δρόσου: -2°C
Υγρασία: 57%
Βαρόμετρο: 1025 hPa
Περίληψη: Αίθριος
Ορατότητα: πάνω από 10 km
2020/04/08 20:30 LBSF 082030Z 22003KT CAVOK 06/M02 Q1025 NOSIG